Flag for Australia

Past Weather in Sydney Central Business District, New South Wales, Australia — Yesterday and Last 2 Weeks

Currently: 68 °F. Broken clouds. (Weather station: Sydney Airport, Australia). See more current weather

Past Weather in Sydney Central Business District — Graph

°F

Sydney Central Business District Temperature Yesterday

Maximum temperature yesterday: 72 °F (at 12:30 pm)
Minimum temperature yesterday: 54 °F (at 5:16 am)
Average temperature yesterday: 63 °F

High & Low Weather Summary for the Past Weeks

 TemperatureHumidityPressure
High75 °F (May 14, 3:30 pm)100% (May 14, 3:00 am)30.48 "Hg (May 14, 3:00 am)
Low50 °F (May 18, 5:00 am)31% (May 17, 3:00 pm)29.83 "Hg (May 15, 3:30 pm)
Average62 °F78%30.15 "Hg
* Reported May 13 11:00 am — May 28 10:30 am, Sydney Central Business District. Weather by CustomWeather, © 2022

Note: Actual official high and low records may vary slightly from our data, if they occured in-between our weather recording intervals... More about our weather records

Sydney Central Business District Weather History for the Previous 24 Hours

Scroll right to see more
 ConditionsComfort  
Time TempWeatherWind HumidityBarometerVisibility
10:30 am
Sat, May 28
66 °FPassing clouds.8 mph68%29.86 "HgN/A
10:00 am64 °FScattered clouds.9 mph73%29.89 "HgN/A
9:00 am61 °FScattered clouds.10 mph83%29.89 "HgN/A
8:30 am61 °FBroken clouds.7 mph83%29.89 "HgN/A
8:00 am59 °FSunny.6 mph88%29.89 "Hg10 mi
7:00 am57 °FSprinkles. Broken clouds.8 mph88%29.89 "HgN/A
5:30 am55 °FClear.8 mph94%29.89 "Hg10 mi
5:00 am55 °FClear.7 mph94%29.89 "Hg10 mi
4:30 am55 °FClear.6 mph94%29.89 "Hg10 mi
4:00 am55 °FClear.7 mph94%29.92 "Hg10 mi
3:30 am55 °FClear.7 mph94%29.92 "Hg6 mi
3:00 am55 °FClear.8 mph94%29.92 "Hg6 mi
2:30 am57 °FClear.8 mph94%29.92 "Hg10 mi
2:00 am57 °FClear.7 mph94%29.92 "Hg10 mi
1:30 am57 °FClear.8 mph94%29.92 "Hg10 mi
1:00 am57 °FClear.6 mph88%29.95 "Hg10 mi
12:30 am59 °FClear.8 mph88%29.95 "Hg10 mi
12:00 am61 °FPassing clouds.8 mph83%29.95 "HgN/A
11:30 pm
Fri, May 27
61 °FPassing clouds.9 mph88%29.98 "HgN/A
11:00 pm61 °FPassing clouds.9 mph88%29.98 "HgN/A
10:30 pm61 °FPassing clouds.6 mph88%29.98 "HgN/A
10:00 pm63 °FPassing clouds.6 mph83%29.98 "HgN/A
9:30 pm63 °FClear.No wind83%29.98 "Hg10 mi
9:00 pm63 °FClear.No wind83%30.01 "Hg10 mi
8:30 pm64 °FClear.3 mph78%30.01 "Hg10 mi
7:30 pm64 °FPassing clouds.7 mph78%30.01 "HgN/A
7:00 pm66 °FClear.7 mph73%30.01 "HgN/A
6:30 pm66 °FClear.7 mph73%30.01 "HgN/A
6:00 pm66 °FClear.8 mph73%29.98 "HgN/A
5:30 pm66 °FPassing clouds.8 mph73%29.98 "HgN/A
5:00 pm66 °FPassing clouds.8 mph73%29.98 "HgN/A
4:30 pm68 °FPassing clouds.10 mph64%29.98 "HgN/A
4:00 pm70 °FPassing clouds.13 mph57%29.98 "HgN/A
3:30 pm70 °FPassing clouds.10 mph57%29.98 "HgN/A
3:00 pm72 °FPassing clouds.10 mph53%29.98 "HgN/A
2:30 pm72 °FPassing clouds.10 mph57%30.01 "HgN/A
2:00 pm72 °FPassing clouds.8 mph57%30.01 "HgN/A
1:30 pm72 °FPassing clouds.No wind57%30.01 "HgN/A
1:00 pm72 °FPassing clouds.2 mph57%30.01 "HgN/A
12:30 pm72 °FPassing clouds.7 mph57%30.04 "HgN/A
12:00 pm70 °FPassing clouds.7 mph60%30.04 "HgN/A
Weather by CustomWeather, © 2022

See weather overview